PROFILE

 METAR AND TAF INFORMATION
ADDS - METARS form results

(1151 UTC 15 May 2021)
http://aviationweather.gov/metar/data/
 
LPPD 151130Z 25010KT 9999 SCT006 BKN010 19/17 Q1023
LPPD 151100Z 26010KT 9999 FEW003 BKN008 19/17 Q1023
TAF LPPD 151100Z 1512/1612 26010KT 9999 FEW004 BKN015 TEMPO 1512/1606 SCT002 BKN004 PROB30 TEMPO 1600/1606 5000 BR BKN002 

 AIRPORT MAP

 RUNWAY INFORMATION
Runway 12 Runway length 8192 ft Runway width 148 ft
Runway elevation 259 ft Runway displaced threshold 0 ft Runway heading 112
Runway 30 Runway length 8192 ft Runway width 148 ft
Runway elevation 187 ft Runway displaced threshold 787 ft Runway heading 292

 AIRPORT FREQUENCIES
Type APP Name APP Frequency 119.4 MHZ
Type TWR Name TWR Frequency 118.3 MHZ

 AIRPORT NEAR NAVIGATION AIDS
Type NDB Name Ponta Delgada Frequency 371 KHZ
Type NDB Name Ponta Delgada Frequency 351 KHZ
Type VORTAC Name Sao Miguel Frequency 114500 KHZ